Time;durP1;ratioP1;P1;durP2;ratioP2;P2;SDS_P1;SDS_P2;PMS_P1;PMS_P2;Temp;Humidity;BMP_temperature;BMP_pressure;BME280_temperature;BME280_humidity;BME280_pressure;Samples;Min_cycle;Max_cycle;Signal;HPM_P1;HPM_P2
2022/09/05 00:00:31;;;;;;;11.18;10.07;;;16.50;99.90;;;;;;2113876;28;20058;-74
2022/09/05 00:02:00;;;;;;;11.75;10.38;;;16.50;99.90;;;;;;2113706;28;20023;-74
2022/09/05 00:03:59;;;;;;;11.35;10.15;;;16.50;99.90;;;;;;2113589;28;20028;-75
2022/09/05 00:05:05;;;;;;;12.13;10.35;;;16.50;99.90;;;;;;2047302;28;20874;-76
2022/09/05 00:06:14;;;;;;;11.52;10.32;;;16.50;99.90;;;;;;2062322;28;20882;-73
2022/09/05 00:07:23;;;;;;;11.60;9.68;;;16.50;99.90;;;;;;2114349;28;20012;-73
2022/09/05 00:09:01;;;;;;;11.10;9.95;;;16.40;99.90;;;;;;2114402;28;20417;-73
2022/09/05 00:10:13;;;;;;;12.45;10.20;;;16.40;99.90;;;;;;2114249;28;20031;-74
2022/09/05 00:11:21;;;;;;;12.13;10.00;;;16.40;99.90;;;;;;2105013;28;20067;-73
2022/09/05 00:12:22;;;;;;;11.35;9.70;;;16.40;99.90;;;;;;2106110;28;20043;-75
2022/09/05 00:13:29;;;;;;;11.20;10.10;;;16.40;99.90;;;;;;2113357;28;20374;-73
2022/09/05 00:14:45;;;;;;;11.15;10.05;;;16.40;99.90;;;;;;2113530;28;20086;-75
2022/09/05 00:16:03;;;;;;;11.57;10.38;;;16.40;99.90;;;;;;2123733;27;20477;-74
2022/09/05 00:17:28;;;;;;;11.60;10.18;;;16.40;99.90;;;;;;2123812;27;20035;-74
2022/09/05 00:18:47;;;;;;;13.13;10.65;;;16.40;99.90;;;;;;2124889;27;20027;-73
2022/09/05 00:19:50;;;;;;;11.93;10.70;;;16.40;99.90;;;;;;2131558;27;20366;-74
2022/09/05 00:21:09;;;;;;;11.38;10.27;;;16.40;99.90;;;;;;2131053;27;20637;-77
2022/09/05 00:22:25;;;;;;;12.00;10.65;;;16.40;99.90;;;;;;2131162;27;20724;-74
2022/09/05 00:23:34;;;;;;;12.80;11.02;;;16.40;99.90;;;;;;2131022;27;20059;-74
2022/09/05 00:25:14;;;;;;;13.07;10.70;;;16.40;99.90;;;;;;2122324;28;20630;-73
2022/09/05 00:26:34;;;;;;;11.93;10.70;;;16.40;99.90;;;;;;2110788;27;20027;-73
2022/09/05 00:27:56;;;;;;;11.65;10.43;;;16.30;99.90;;;;;;2131393;27;20027;-73
2022/09/05 00:29:17;;;;;;;11.85;10.65;;;16.30;99.90;;;;;;2132691;27;20068;-74
2022/09/05 00:30:18;;;;;;;;;;;16.30;99.90;;;;;;2133749;27;20662;-75
2022/09/05 00:31:46;;;;;;;13.60;10.77;;;16.30;99.90;;;;;;2133202;27;19903;-73
2022/09/05 00:33:15;;;;;;;12.00;10.70;;;16.30;99.90;;;;;;2132953;27;20038;-75
2022/09/05 00:34:34;;;;;;;12.50;11.20;;;16.30;99.90;;;;;;2133301;27;20068;-73
2022/09/05 00:36:32;;;;;;;13.02;11.10;;;16.30;99.90;;;;;;2133156;27;20036;-73
2022/09/05 00:37:36;;;;;;;12.95;11.18;;;16.30;99.90;;;;;;2097787;28;20697;-73
2022/09/05 00:38:40;;;;;;;13.27;11.20;;;16.20;99.90;;;;;;2097558;28;20031;-73
2022/09/05 00:39:41;;;;;;;12.10;10.80;;;16.20;99.90;;;;;;2101951;28;20031;-74
2022/09/05 00:40:46;;;;;;;12.02;10.82;;;16.20;99.90;;;;;;2106417;28;20085;-77
2022/09/05 00:41:50;;;;;;;12.50;10.77;;;16.20;99.90;;;;;;2106330;28;20028;-75
2022/09/05 00:42:58;;;;;;;14.23;11.25;;;16.20;99.90;;;;;;2109505;27;20529;-73
2022/09/05 00:44:00;;;;;;;12.35;11.13;;;16.20;99.90;;;;;;2133163;27;20052;-73
2022/09/05 00:45:04;;;;;;;12.65;11.23;;;16.20;99.90;;;;;;2133052;27;20042;-74
2022/09/05 00:46:16;;;;;;;13.23;10.85;;;16.20;99.90;;;;;;2132229;27;20113;-74
2022/09/05 00:47:32;;;;;;;12.57;11.25;;;16.10;99.90;;;;;;2132542;27;20042;-73
2022/09/05 00:48:45;;;;;;;12.75;11.45;;;16.10;99.90;;;;;;2132910;27;20037;-74
2022/09/05 00:49:58;;;;;;;13.18;11.18;;;16.10;99.90;;;;;;2132855;27;20466;-73
2022/09/05 00:51:34;;;;;;;12.90;11.20;;;16.10;99.90;;;;;;2132229;27;20034;-73
2022/09/05 00:52:44;;;;;;;12.57;11.23;;;16.10;99.90;;;;;;2128282;27;20405;-76
2022/09/05 00:53:47;;;;;;;;;;;16.10;99.90;;;;;;2125572;27;20023;-73
2022/09/05 00:55:13;;;;;;;12.70;10.80;;;16.00;99.90;;;;;;2132231;27;19911;-74
2022/09/05 00:56:38;;;;;;;12.23;10.93;;;16.00;99.90;;;;;;2132378;27;20027;-73
2022/09/05 00:57:56;;;;;;;12.60;11.30;;;16.00;99.90;;;;;;2132766;27;20657;-75
2022/09/05 00:59:22;;;;;;;12.27;10.90;;;16.00;99.90;;;;;;2132652;27;20023;-76
2022/09/05 01:00:32;;;;;;;12.30;11.00;;;16.00;99.90;;;;;;2132637;27;20034;-75
2022/09/05 01:01:55;;;;;;;12.25;10.95;;;16.00;99.90;;;;;;2131808;27;20019;-74
2022/09/05 01:03:01;;;;;;;12.75;11.30;;;15.90;99.90;;;;;;2126134;27;20045;-74
2022/09/05 01:04:23;;;;;;;12.20;11.00;;;15.90;99.90;;;;;;2124081;27;20623;-75
2022/09/05 01:06:16;;;;;;;12.55;11.25;;;15.90;99.90;;;;;;2131729;27;20023;-76
2022/09/05 01:07:38;;;;;;;12.90;11.57;;;16.00;99.90;;;;;;2097318;28;20103;-74
2022/09/05 01:09:12;;;;;;;13.88;11.25;;;15.90;99.90;;;;;;2097401;28;20032;-74
2022/09/05 01:10:28;;;;;;;12.25;11.05;;;15.90;99.90;;;;;;2131889;27;20052;-75
2022/09/05 01:11:48;;;;;;;12.75;11.25;;;15.90;99.90;;;;;;2117117;27;20034;-74
2022/09/05 01:13:26;;;;;;;12.43;11.10;;;15.90;99.90;;;;;;2129354;27;20018;-75
2022/09/05 01:14:36;;;;;;;13.38;11.18;;;15.90;99.90;;;;;;2131966;27;20055;-75
2022/09/05 01:15:53;;;;;;;12.70;11.40;;;15.90;99.90;;;;;;2132762;27;20018;-74
2022/09/05 01:17:08;;;;;;;12.70;11.40;;;15.80;99.90;;;;;;2133754;27;20044;-75
2022/09/05 01:18:35;;;;;;;12.45;11.13;;;15.80;99.90;;;;;;2133712;27;20026;-74
2022/09/05 01:19:55;;;;;;;13.13;11.82;;;15.80;99.90;;;;;;2134179;27;20476;-75
2022/09/05 01:21:17;;;;;;;13.05;11.75;;;15.80;99.90;;;;;;2133360;27;20117;-72
2022/09/05 01:22:53;;;;;;;12.70;11.30;;;15.80;99.90;;;;;;2132765;27;20030;-71
2022/09/05 01:24:01;;;;;;;13.43;12.02;;;15.80;99.90;;;;;;2133268;27;20046;-73
2022/09/05 01:25:05;;;;;;;12.80;11.50;;;15.80;99.90;;;;;;2132336;27;20533;-73
2022/09/05 01:26:11;;;;;;;13.00;11.55;;;15.70;99.90;;;;;;2132780;27;20030;-72
2022/09/05 01:27:43;;;;;;;13.68;11.80;;;15.70;99.90;;;;;;2132557;27;20026;-73
2022/09/05 01:29:21;;;;;;;12.82;11.52;;;15.70;99.90;;;;;;2132649;27;20035;-74
2022/09/05 01:31:26;;;;;;;12.93;11.43;;;15.70;99.90;;;;;;2132414;27;20079;-73
2022/09/05 01:32:50;;;;;;;14.63;11.65;;;15.70;99.90;;;;;;2073862;28;20123;-73
2022/09/05 01:34:08;;;;;;;12.93;11.63;;;15.70;99.90;;;;;;2077766;28;20123;-73
2022/09/05 01:35:56;;;;;;;13.30;11.90;;;15.70;99.90;;;;;;2089041;28;20168;-74
2022/09/05 01:36:57;;;;;;;13.48;12.07;;;15.70;99.90;;;;;;2089285;28;20040;-74
2022/09/05 01:38:25;;;;;;;13.18;11.88;;;15.70;99.90;;;;;;2117198;27;20035;-74
2022/09/05 01:39:39;;;;;;;13.20;11.80;;;15.80;99.90;;;;;;2125722;27;20027;-74
2022/09/05 01:41:04;;;;;;;13.00;11.60;;;15.80;99.90;;;;;;2124243;27;20068;-74
2022/09/05 01:42:23;;;;;;;14.02;11.77;;;15.80;99.90;;;;;;2123053;27;20034;-72
2022/09/05 01:43:24;;;;;;;13.40;12.00;;;15.80;99.90;;;;;;2123268;27;20027;-72
2022/09/05 01:45:02;;;;;;;14.40;11.80;;;15.80;99.90;;;;;;2122979;27;20023;-74
2022/09/05 01:46:38;;;;;;;13.10;11.70;;;15.80;99.90;;;;;;2123864;27;20307;-73
2022/09/05 01:47:51;;;;;;;12.98;11.68;;;15.80;99.90;;;;;;2126535;27;20027;-74
2022/09/05 01:49:07;;;;;;;12.80;11.38;;;15.80;99.90;;;;;;2118978;27;20393;-72
2022/09/05 01:50:45;;;;;;;13.32;11.63;;;15.80;99.90;;;;;;2126114;27;20027;-72
2022/09/05 01:52:10;;;;;;;14.07;12.18;;;15.90;99.90;;;;;;2110666;28;20035;-73
2022/09/05 01:53:41;;;;;;;12.82;11.43;;;15.90;99.90;;;;;;2112056;27;20034;-73
2022/09/05 01:54:47;;;;;;;;;;;15.90;99.90;;;;;;2120896;27;20027;-72
2022/09/05 01:56:09;;;;;;;13.52;10.95;;;15.90;99.90;;;;;;2119311;27;19911;-72
2022/09/05 01:57:52;;;;;;;14.50;11.57;;;15.90;99.90;;;;;;2126738;27;20024;-74
2022/09/05 01:59:11;;;;;;;13.18;11.77;;;15.90;99.90;;;;;;2122780;27;20031;-73
2022/09/05 02:00:54;;;;;;;13.00;11.70;;;15.90;99.90;;;;;;2123583;27;20393;-73
2022/09/05 02:02:25;;;;;;;13.23;11.82;;;15.90;99.90;;;;;;2104327;28;20035;-72
2022/09/05 02:03:52;;;;;;;13.48;11.93;;;15.90;99.90;;;;;;2108614;28;20049;-71
2022/09/05 02:05:24;;;;;;;13.45;12.05;;;15.90;99.90;;;;;;2121066;27;20083;-74
2022/09/05 02:06:47;;;;;;;13.30;11.60;;;15.90;99.90;;;;;;2127076;27;20024;-72
2022/09/05 02:08:11;;;;;;;12.60;11.13;;;15.90;99.90;;;;;;2119951;27;20068;-72
2022/09/05 02:09:36;;;;;;;13.90;11.90;;;15.80;99.90;;;;;;2116912;27;20030;-72
2022/09/05 02:10:56;;;;;;;12.90;11.60;;;15.80;99.90;;;;;;2122648;27;20540;-73
2022/09/05 02:12:09;;;;;;;12.98;11.65;;;15.80;99.90;;;;;;2129275;27;20071;-74
2022/09/05 02:13:13;;;;;;;13.38;12.07;;;15.80;99.90;;;;;;2131541;27;20019;-73
2022/09/05 02:14:27;;;;;;;13.20;11.80;;;15.80;99.90;;;;;;2131590;27;20028;-73
2022/09/05 02:15:40;;;;;;;13.43;11.93;;;15.80;99.90;;;;;;2131421;27;20027;-74
2022/09/05 02:16:43;;;;;;;12.77;11.48;;;15.80;99.90;;;;;;2131314;27;20557;-73
2022/09/05 02:17:46;;;;;;;13.55;12.00;;;15.70;99.90;;;;;;2131317;27;20792;-73
2022/09/05 02:19:07;;;;;;;13.15;11.85;;;15.70;99.90;;;;;;2131227;27;20511;-73
2022/09/05 02:20:21;;;;;;;13.38;11.70;;;15.70;99.90;;;;;;2131689;27;20035;-75
2022/09/05 02:21:37;;;;;;;14.38;12.15;;;15.70;99.90;;;;;;2131660;27;20015;-76
2022/09/05 02:22:45;;;;;;;13.50;12.10;;;15.70;99.90;;;;;;2131493;27;20031;-74
2022/09/05 02:24:00;;;;;;;14.02;12.00;;;15.70;99.90;;;;;;2131781;27;20701;-74
2022/09/05 02:25:08;;;;;;;13.52;12.23;;;15.70;99.90;;;;;;2131452;27;20027;-71
2022/09/05 02:26:28;;;;;;;13.95;12.35;;;15.70;99.90;;;;;;2130633;27;20031;-73
2022/09/05 02:27:45;;;;;;;13.32;11.93;;;15.70;99.90;;;;;;2130657;27;20523;-72
2022/09/05 02:28:58;;;;;;;14.02;11.82;;;15.70;99.90;;;;;;2130656;27;20033;-72
2022/09/05 02:30:11;;;;;;;13.07;11.77;;;15.70;99.90;;;;;;2120497;27;20038;-72
2022/09/05 02:31:40;;;;;;;15.05;12.85;;;15.70;99.90;;;;;;2122694;27;20597;-73
2022/09/05 02:33:05;;;;;;;12.85;11.55;;;15.70;99.90;;;;;;2113946;28;20533;-72
2022/09/05 02:34:11;;;;;;;13.52;12.13;;;15.70;99.90;;;;;;2114341;28;20059;-73
2022/09/05 02:35:24;;;;;;;15.10;12.80;;;15.70;99.90;;;;;;2113192;28;20039;-72
2022/09/05 02:36:30;;;;;;;13.73;12.32;;;15.60;99.90;;;;;;2106632;28;20040;-73
2022/09/05 02:37:41;;;;;;;13.57;12.18;;;15.60;99.90;;;;;;2113825;28;20103;-74
2022/09/05 02:38:48;;;;;;;13.63;12.23;;;15.70;99.90;;;;;;2114832;28;20058;-74
2022/09/05 02:40:05;;;;;;;13.30;12.00;;;15.70;99.90;;;;;;2114516;27;20027;-73
2022/09/05 02:41:18;;;;;;;13.18;11.88;;;15.60;99.90;;;;;;2113998;28;20106;-74
2022/09/05 02:42:25;;;;;;;14.95;12.27;;;15.60;99.90;;;;;;2115141;28;20026;-74
2022/09/05 02:43:46;;;;;;;13.43;12.07;;;15.60;99.90;;;;;;2115363;28;20049;-73
2022/09/05 02:45:03;;;;;;;13.43;12.02;;;15.60;99.90;;;;;;2116009;28;20027;-73
2022/09/05 02:46:13;;;;;;;13.70;12.30;;;15.60;99.90;;;;;;2114005;28;20039;-73
2022/09/05 02:48:00;;;;;;;13.63;12.23;;;15.60;99.90;;;;;;2106447;28;20024;-73
2022/09/05 02:49:12;;;;;;;13.73;12.32;;;15.60;99.90;;;;;;2093579;28;20040;-73
2022/09/05 02:50:37;;;;;;;13.77;12.38;;;15.60;99.90;;;;;;2114261;28;20024;-73
2022/09/05 02:51:55;;;;;;;13.63;12.23;;;15.50;99.90;;;;;;2113182;28;20032;-73
2022/09/05 02:52:56;;;;;;;13.73;12.30;;;15.50;99.90;;;;;;2113258;28;20103;-73
2022/09/05 02:54:21;;;;;;;13.60;12.15;;;15.50;99.90;;;;;;2114204;28;20027;-72
2022/09/05 02:55:30;;;;;;;13.25;11.95;;;15.50;99.90;;;;;;2114012;27;20391;-74
2022/09/05 02:56:44;;;;;;;14.25;12.75;;;15.50;99.90;;;;;;2113521;28;20126;-75
2022/09/05 02:58:06;;;;;;;13.55;12.15;;;15.50;99.90;;;;;;2114844;27;20115;-73
2022/09/05 02:59:10;;;;;;;13.73;12.15;;;15.50;99.90;;;;;;2119167;27;20118;-74
2022/09/05 03:00:20;;;;;;;13.98;12.55;;;15.50;99.90;;;;;;2113845;28;20366;-73
2022/09/05 03:01:27;;;;;;;;;;;15.50;99.90;;;;;;2113873;28;20034;-73
2022/09/05 03:02:52;;;;;;;14.18;12.75;;;15.40;99.90;;;;;;2105448;28;20319;-73
2022/09/05 03:04:22;;;;;;;14.50;12.98;;;15.40;99.90;;;;;;2119485;27;20446;-73
2022/09/05 03:05:52;;;;;;;14.60;12.98;;;15.40;99.90;;;;;;2122400;27;20062;-73
2022/09/05 03:07:16;;;;;;;14.60;12.80;;;15.40;99.90;;;;;;2110841;27;20036;-73
2022/09/05 03:08:35;;;;;;;14.43;12.93;;;15.30;99.90;;;;;;2114965;27;20023;-73
2022/09/05 03:09:46;;;;;;;15.68;12.98;;;15.40;99.90;;;;;;2126453;27;20039;-72
2022/09/05 03:11:24;;;;;;;16.10;13.38;;;15.30;99.90;;;;;;2121998;27;20821;-73
2022/09/05 03:12:59;;;;;;;14.98;13.43;;;15.30;99.90;;;;;;2112876;28;20425;-73
2022/09/05 03:14:18;;;;;;;14.48;12.93;;;15.30;99.90;;;;;;2100455;28;20515;-74
2022/09/05 03:15:36;;;;;;;15.02;13.48;;;15.30;99.90;;;;;;2122055;27;20038;-73
2022/09/05 03:17:01;;;;;;;15.25;13.48;;;15.20;99.90;;;;;;2122393;27;20023;-73
2022/09/05 03:18:37;;;;;;;14.77;13.07;;;15.30;99.90;;;;;;2124791;27;20027;-73
2022/09/05 03:19:53;;;;;;;16.02;13.43;;;15.20;99.90;;;;;;2130392;27;20050;-74
2022/09/05 03:21:37;;;;;;;15.60;13.52;;;15.20;99.90;;;;;;2121628;27;20134;-73
2022/09/05 03:23:17;;;;;;;16.20;13.18;;;15.20;99.90;;;;;;2125509;27;20038;-74
2022/09/05 03:24:32;;;;;;;15.13;13.45;;;15.20;99.90;;;;;;2095860;27;20100;-73
2022/09/05 03:25:36;;;;;;;15.25;13.13;;;15.20;99.90;;;;;;2125082;27;20034;-73
2022/09/05 03:27:04;;;;;;;15.30;13.70;;;15.20;99.90;;;;;;2122133;27;20038;-73
2022/09/05 03:28:22;;;;;;;14.57;13.07;;;15.20;99.90;;;;;;2122488;27;20173;-72
2022/09/05 03:29:37;;;;;;;15.43;13.63;;;15.20;99.90;;;;;;2124672;27;20092;-72
2022/09/05 03:31:08;;;;;;;15.43;13.80;;;15.20;99.90;;;;;;2125537;27;20034;-73
2022/09/05 03:32:19;;;;;;;16.17;13.80;;;15.20;99.90;;;;;;2122127;27;20035;-73
2022/09/05 03:33:38;;;;;;;;;;;15.20;99.90;;;;;;2122568;27;20034;-72
2022/09/05 03:35:10;;;;;;;15.18;13.60;;;15.10;99.90;;;;;;2122266;27;19924;-73
2022/09/05 03:36:21;;;;;;;15.35;13.63;;;15.20;99.90;;;;;;2122310;27;20038;-73
2022/09/05 03:38:04;;;;;;;17.58;13.57;;;15.10;99.90;;;;;;2121718;27;20015;-73
2022/09/05 03:39:10;;;;;;;15.32;13.10;;;15.10;99.90;;;;;;2118798;27;20068;-73
2022/09/05 03:40:36;;;;;;;14.45;13.05;;;15.10;99.90;;;;;;2113578;28;20188;-73
2022/09/05 03:41:57;;;;;;;15.77;14.13;;;15.10;99.90;;;;;;2124304;27;20027;-73
2022/09/05 03:43:24;;;;;;;15.30;13.25;;;15.10;99.90;;;;;;2121488;27;20019;-73
2022/09/05 03:44:31;;;;;;;15.13;13.48;;;15.10;99.90;;;;;;2121808;27;20023;-73
2022/09/05 03:46:05;;;;;;;14.85;13.35;;;15.10;99.90;;;;;;2121246;27;20512;-73
2022/09/05 03:47:27;;;;;;;14.45;13.05;;;15.10;99.90;;;;;;2121804;27;20420;-73
2022/09/05 03:49:16;;;;;;;15.80;13.93;;;15.00;99.90;;;;;;2121062;27;20054;-74
2022/09/05 03:50:26;;;;;;;17.33;14.10;;;15.00;99.90;;;;;;2085753;28;20037;-74
2022/09/05 03:51:48;;;;;;;15.50;13.83;;;15.00;99.90;;;;;;2094021;27;20492;-73
2022/09/05 03:53:07;;;;;;;15.52;13.65;;;15.00;99.90;;;;;;2121245;27;20311;-73
2022/09/05 03:54:08;;;;;;;15.85;13.95;;;15.00;99.90;;;;;;2122064;27;20063;-73
2022/09/05 03:55:39;;;;;;;15.38;13.73;;;15.00;99.90;;;;;;2121470;27;20046;-73
2022/09/05 03:56:42;;;;;;;;;;;15.00;99.90;;;;;;2122360;27;20028;-74
2022/09/05 03:58:16;;;;;;;15.57;13.80;;;15.00;99.90;;;;;;2122123;27;19908;-74
2022/09/05 03:59:57;;;;;;;16.63;13.73;;;15.00;99.90;;;;;;2120774;27;20026;-73
2022/09/05 04:01:02;;;;;;;;;;;15.00;99.90;;;;;;2128417;27;20102;-74
2022/09/05 04:02:06;;;;;;;15.32;13.25;;;15.00;99.90;;;;;;2122357;27;19970;-73
2022/09/05 04:03:27;;;;;;;15.68;13.95;;;14.90;99.90;;;;;;2121333;27;20050;-73
2022/09/05 04:04:41;;;;;;;;;;;14.90;99.90;;;;;;2115393;27;20517;-73
2022/09/05 04:05:49;;;;;;;16.17;13.68;;;14.90;99.90;;;;;;2121670;27;19939;-72
2022/09/05 04:07:02;;;;;;;15.35;13.75;;;15.00;99.90;;;;;;2122145;27;20542;-73
2022/09/05 04:08:40;;;;;;;20.70;13.80;;;14.90;99.90;;;;;;2122092;27;20427;-73
2022/09/05 04:10:06;;;;;;;15.25;13.43;;;14.90;99.90;;;;;;2087155;28;20051;-74
2022/09/05 04:11:15;;;;;;;16.10;13.85;;;14.90;99.90;;;;;;2114469;27;20050;-74
2022/09/05 04:12:32;;;;;;;15.02;13.45;;;15.00;99.90;;;;;;2115164;28;20036;-73
2022/09/05 04:13:37;;;;;;;17.38;14.07;;;14.90;99.90;;;;;;2116253;27;20028;-73
2022/09/05 04:15:19;;;;;;;17.88;14.18;;;15.00;99.90;;;;;;2124203;27;20031;-73
2022/09/05 04:16:44;;;;;;;15.88;14.00;;;15.00;99.90;;;;;;2079892;28;20081;-73
2022/09/05 04:18:10;;;;;;;15.45;13.85;;;15.00;99.90;;;;;;2119772;28;20043;-73
2022/09/05 04:19:27;;;;;;;16.45;14.23;;;15.00;99.90;;;;;;2119072;28;20024;-73
2022/09/05 04:20:48;;;;;;;15.70;13.60;;;15.10;99.90;;;;;;2125213;28;20062;-73
2022/09/05 04:22:04;;;;;;;16.85;14.27;;;15.00;99.90;;;;;;2123395;27;20020;-73
2022/09/05 04:23:17;;;;;;;15.52;13.85;;;15.00;99.90;;;;;;2124106;28;20464;-72
2022/09/05 04:24:31;;;;;;;16.30;14.60;;;15.10;99.90;;;;;;2117202;27;20094;-74
2022/09/05 04:25:47;;;;;;;15.38;13.65;;;15.00;99.90;;;;;;2113066;28;20038;-74
2022/09/05 04:27:15;;;;;;;15.95;13.77;;;15.00;99.90;;;;;;2116847;28;20043;-73
2022/09/05 04:28:39;;;;;;;16.00;13.82;;;15.10;99.90;;;;;;2125200;28;20023;-74
2022/09/05 04:30:00;;;;;;;15.93;14.23;;;15.10;99.90;;;;;;2122123;27;20110;-74
2022/09/05 04:31:15;;;;;;;17.58;14.60;;;15.10;99.90;;;;;;2124142;27;20075;-73
2022/09/05 04:33:05;;;;;;;17.70;14.65;;;15.00;99.90;;;;;;2124729;27;20034;-73
2022/09/05 04:34:45;;;;;;;16.02;14.32;;;15.00;99.90;;;;;;2114604;28;20031;-72
2022/09/05 04:35:56;;;;;;;16.13;14.43;;;15.00;99.90;;;;;;2080853;28;20125;-74
2022/09/05 04:37:02;;;;;;;15.68;13.98;;;15.00;99.90;;;;;;2099833;28;20028;-74
2022/09/05 04:38:12;;;;;;;16.83;14.60;;;15.00;99.90;;;;;;2099853;28;20426;-73
2022/09/05 04:39:19;;;;;;;17.95;14.45;;;15.00;99.90;;;;;;2107775;28;20032;-73
2022/09/05 04:40:35;;;;;;;16.17;14.48;;;15.10;99.90;;;;;;2117283;28;20042;-74
2022/09/05 04:41:47;;;;;;;16.98;15.23;;;15.10;99.90;;;;;;2108126;28;20036;-75
2022/09/05 04:42:50;;;;;;;19.83;14.77;;;15.10;99.90;;;;;;2106319;28;20036;-74
2022/09/05 04:43:57;;;;;;;18.25;14.93;;;15.10;99.90;;;;;;2113203;28;20463;-75
2022/09/05 04:45:12;;;;;;;16.98;14.57;;;15.10;99.90;;;;;;2113819;28;20056;-74
2022/09/05 04:46:42;;;;;;;16.70;14.90;;;15.10;99.90;;;;;;2113993;28;20031;-74
2022/09/05 04:47:51;;;;;;;16.13;14.43;;;15.10;99.90;;;;;;2107013;28;20652;-74
2022/09/05 04:49:15;;;;;;;18.33;14.85;;;15.10;99.90;;;;;;2113893;28;20027;-75
2022/09/05 04:50:21;;;;;;;17.73;15.38;;;15.20;99.90;;;;;;2113941;28;20028;-75
2022/09/05 04:51:53;;;;;;;18.73;15.48;;;15.20;99.90;;;;;;2113323;28;20721;-74
2022/09/05 04:53:15;;;;;;;20.15;14.95;;;15.20;99.90;;;;;;2100599;28;20055;-75
2022/09/05 04:54:34;;;;;;;17.02;15.15;;;15.10;99.90;;;;;;2107995;28;20037;-76
2022/09/05 04:55:44;;;;;;;17.00;15.20;;;15.20;99.90;;;;;;2113573;28;20031;-75
2022/09/05 04:56:49;;;;;;;17.45;15.15;;;15.20;99.90;;;;;;2117546;28;20490;-74
2022/09/05 04:57:56;;;;;;;17.80;15.70;;;15.20;99.90;;;;;;2126993;27;20054;-74
2022/09/05 04:59:13;;;;;;;16.80;14.98;;;15.20;99.90;;;;;;2130961;27;20114;-76
2022/09/05 05:00:29;;;;;;;16.52;14.73;;;15.20;99.90;;;;;;2114137;27;20047;-75
2022/09/05 05:01:47;;;;;;;18.90;15.32;;;15.20;99.90;;;;;;2130617;27;20019;-75
2022/09/05 05:02:58;;;;;;;18.35;15.32;;;15.20;99.90;;;;;;2130480;27;20524;-74
2022/09/05 05:04:15;;;;;;;16.50;14.73;;;15.30;99.90;;;;;;2130577;27;20015;-75
2022/09/05 05:05:20;;;;;;;18.45;15.18;;;15.40;99.90;;;;;;2129535;27;20103;-74
2022/09/05 05:06:29;;;;;;;19.08;15.38;;;15.40;99.90;;;;;;2130276;27;20094;-74
2022/09/05 05:07:54;;;;;;;17.27;15.48;;;15.60;99.90;;;;;;2130791;27;20608;-72
2022/09/05 05:08:58;;;;;;;17.63;15.55;;;15.70;99.90;;;;;;2130623;27;20029;-72
2022/09/05 05:10:01;;;;;;;16.95;15.18;;;15.90;99.90;;;;;;2130163;27;20437;-73
2022/09/05 05:11:26;;;;;;;17.77;14.93;;;16.00;99.90;;;;;;2130386;27;20026;-73
2022/09/05 05:12:49;;;;;;;16.95;14.95;;;16.10;99.90;;;;;;2130807;27;20030;-74
2022/09/05 05:14:27;;;;;;;17.00;14.93;;;16.30;99.90;;;;;;2130541;27;20038;-73
2022/09/05 05:15:29;;;;;;;17.35;14.45;;;16.40;99.90;;;;;;2131939;27;20102;-73
2022/09/05 05:16:45;;;;;;;17.38;14.40;;;16.60;99.90;;;;;;2131568;27;20463;-75
2022/09/05 05:18:16;;;;;;;17.83;14.82;;;16.70;99.90;;;;;;2130218;27;20065;-73
2022/09/05 05:19:28;;;;;;;20.02;14.50;;;16.80;99.90;;;;;;2115780;27;20031;-74
2022/09/05 05:20:51;;;;;;;18.25;14.57;;;16.90;99.90;;;;;;2123889;27;20027;-73
2022/09/05 05:21:55;;;;;;;18.30;14.32;;;17.00;99.90;;;;;;2123286;27;20136;-74
2022/09/05 05:23:01;;;;;;;19.63;14.82;;;17.10;99.90;;;;;;2122668;27;20023;-73
2022/09/05 05:24:26;;;;;;;18.60;14.23;;;17.20;99.90;;;;;;2124108;27;20405;-72
2022/09/05 05:25:28;;;;;;;19.70;14.60;;;17.20;99.90;;;;;;2123549;27;20065;-73
2022/09/05 05:26:41;;;;;;;18.83;14.35;;;17.30;99.90;;;;;;2115730;28;20105;-73
2022/09/05 05:28:50;;;;;;;20.52;14.23;;;17.30;99.90;;;;;;2114275;28;20152;-74
2022/09/05 05:30:03;;;;;;;18.63;14.18;;;17.30;99.90;;;;;;2089593;28;20063;-73
2022/09/05 05:31:11;;;;;;;21.48;13.88;;;17.30;99.90;;;;;;2113075;27;20044;-74
2022/09/05 05:32:22;;;;;;;17.02;14.30;;;17.10;99.90;;;;;;2115351;27;20035;-74
2022/09/05 05:33:27;;;;;;;18.75;14.68;;;17.00;99.90;;;;;;2122671;27;20023;-74
2022/09/05 05:34:32;;;;;;;19.77;14.52;;;16.90;99.90;;;;;;2123475;27;20677;-74
2022/09/05 05:35:33;;;;;;;20.00;14.50;;;16.80;99.90;;;;;;2125320;27;20076;-76
2022/09/05 05:36:44;;;;;;;17.13;14.15;;;16.80;99.90;;;;;;2124396;27;20110;-74
2022/09/05 05:37:54;;;;;;;18.40;14.93;;;16.70;99.90;;;;;;2124508;27;20027;-74
2022/09/05 05:39:26;;;;;;;20.42;15.20;;;16.70;99.90;;;;;;2124004;27;20101;-73
2022/09/05 05:40:30;;;;;;;26.95;15.07;;;16.60;99.90;;;;;;2123669;27;20088;-73
2022/09/05 05:41:49;;;;;;;20.48;14.85;;;16.60;99.90;;;;;;2123632;27;20019;-72
2022/09/05 05:42:50;;;;;;;18.20;14.55;;;16.60;99.90;;;;;;2122605;27;20019;-73
2022/09/05 05:43:51;;;;;;;17.52;14.43;;;16.50;99.90;;;;;;2122261;27;20034;-72
2022/09/05 05:44:57;;;;;;;18.83;15.73;;;16.60;99.90;;;;;;2122582;27;20038;-72
2022/09/05 05:46:01;;;;;;;17.75;14.73;;;16.60;99.90;;;;;;2124708;27;20023;-76
2022/09/05 05:47:17;;;;;;;16.75;14.20;;;16.60;99.90;;;;;;2124376;27;20062;-77
2022/09/05 05:48:17;;;;;;;18.77;14.55;;;16.60;99.90;;;;;;2123206;27;20401;-76
2022/09/05 05:49:44;;;;;;;20.02;14.38;;;16.60;99.90;;;;;;2122579;27;20030;-75
2022/09/05 05:51:17;;;;;;;17.85;14.43;;;16.60;99.90;;;;;;2123687;27;20088;-73
2022/09/05 05:52:36;;;;;;;19.05;15.00;;;16.60;99.90;;;;;;2117148;27;20024;-73
2022/09/05 05:53:39;;;;;;;17.75;14.82;;;16.70;99.90;;;;;;2122804;27;20489;-71
2022/09/05 05:55:07;;;;;;;19.65;15.52;;;16.70;99.90;;;;;;2127131;27;20101;-72
2022/09/05 05:56:52;;;;;;;17.05;14.00;;;16.70;99.90;;;;;;2124866;27;20037;-72
2022/09/05 05:58:31;;;;;;;20.33;14.02;;;16.80;99.90;;;;;;2108348;28;20038;-74
2022/09/05 06:00:05;;;;;;;21.85;14.73;;;16.80;99.90;;;;;;2096884;28;20040;-74
2022/09/05 06:03:32;;;;;;;19.58;14.52;;;16.90;99.90;;;;;;2130737;27;20027;-73
2022/09/05 06:12:05;;;;;;;15.40;13.35;;;17.10;99.90;;;;;;2116839;27;20015;-74
2022/09/05 06:13:29;;;;;;;17.75;14.90;;;17.20;99.90;;;;;;2116687;27;20127;-74
2022/09/05 06:15:05;;;;;;;24.90;17.92;;;17.20;99.90;;;;;;2121749;27;20018;-73
2022/09/05 06:16:49;;;;;;;19.83;16.65;;;17.20;99.90;;;;;;2120843;27;20378;-74
2022/09/05 06:18:18;;;;;;;19.98;16.67;;;17.20;99.90;;;;;;2116283;27;20040;-73
2022/09/05 06:19:40;;;;;;;20.98;14.65;;;17.20;99.90;;;;;;2131453;27;20075;-74
2022/09/05 06:21:14;;;;;;;17.40;14.52;;;17.30;99.90;;;;;;2131259;27;20164;-74
2022/09/05 06:22:49;;;;;;;18.33;14.15;;;17.30;99.90;;;;;;2119844;27;20042;-73
2022/09/05 06:24:03;;;;;;;22.42;16.67;;;17.40;99.90;;;;;;2128120;27;20030;-71
2022/09/05 06:25:37;;;;;;;21.02;17.17;;;17.40;99.90;;;;;;2118443;27;20024;-72
2022/09/05 06:27:12;;;;;;;23.60;18.40;;;17.40;99.90;;;;;;2122408;27;20084;-72
2022/09/05 06:28:24;;;;;;;19.35;16.45;;;17.40;99.90;;;;;;2127877;27;20075;-72
2022/09/05 06:29:46;;;;;;;20.63;16.08;;;17.50;99.90;;;;;;2129268;27;20050;-72
2022/09/05 06:31:12;;;;;;;20.35;17.10;;;17.50;99.90;;;;;;2120197;27;20016;-73
2022/09/05 06:32:13;;;;;;;26.60;18.48;;;17.50;99.90;;;;;;2110370;28;20024;-74
2022/09/05 06:33:26;;;;;;;23.00;17.17;;;17.40;99.90;;;;;;2110013;28;20012;-73
2022/09/05 06:34:48;;;;;;;19.45;16.13;;;17.50;99.90;;;;;;2103332;28;20162;-75
2022/09/05 06:36:13;;;;;;;30.13;21.60;;;17.50;99.90;;;;;;2109900;28;20148;-71
2022/09/05 06:37:42;;;;;;;26.00;18.38;;;17.60;99.90;;;;;;2114317;28;20032;-74
2022/09/05 06:39:10;;;;;;;26.05;18.73;;;17.60;99.90;;;;;;2114783;28;20020;-71
2022/09/05 06:40:22;;;;;;;27.52;20.15;;;17.60;99.90;;;;;;2114386;28;20498;-73
2022/09/05 06:41:50;;;;;;;25.15;18.73;;;17.60;99.90;;;;;;2115720;28;20035;-72
2022/09/05 06:43:12;;;;;;;20.92;16.75;;;17.60;99.90;;;;;;2116772;28;20023;-74
2022/09/05 06:44:30;;;;;;;24.10;18.00;;;17.70;99.90;;;;;;2115703;28;20035;-74
2022/09/05 06:45:48;;;;;;;24.63;18.88;;;17.80;99.90;;;;;;2118056;28;20023;-72
2022/09/05 06:47:02;;;;;;;22.02;16.70;;;17.80;99.90;;;;;;2118909;28;20160;-72
2022/09/05 06:48:31;;;;;;;24.67;18.85;;;17.90;99.90;;;;;;2116872;27;20037;-71
2022/09/05 06:49:52;;;;;;;24.70;18.40;;;17.90;99.90;;;;;;2128665;27;20484;-71
2022/09/05 06:51:23;;;;;;;23.95;19.60;;;18.00;99.90;;;;;;2128765;27;20034;-71
2022/09/05 06:52:52;;;;;;;24.27;19.75;;;18.00;99.90;;;;;;2124867;27;20126;-71